createdAt,value
2023-03-22T00:00:23.720Z,85.93
2023-03-22T00:02:24.142Z,85.72
2023-03-22T00:04:24.454Z,85.72
2023-03-22T00:06:24.779Z,85.42
2023-03-22T00:08:25.111Z,85.52
2023-03-22T00:10:25.408Z,85.83
2023-03-22T00:12:25.744Z,85.52
2023-03-22T00:14:26.072Z,85.42
2023-03-22T00:16:26.533Z,85.22
2023-03-22T00:18:26.895Z,85.31
2023-03-22T00:20:27.221Z,84.80
2023-03-22T00:22:28.129Z,85.52
2023-03-22T00:24:28.377Z,85.63
2023-03-22T00:26:29.625Z,85.52
2023-03-22T00:28:29.916Z,85.52
2023-03-22T00:30:30.206Z,85.31
2023-03-22T00:32:30.516Z,85.31
2023-03-22T00:34:32.225Z,85.31
2023-03-22T00:36:32.472Z,85.52
2023-03-22T00:38:42.137Z,85.63
2023-03-22T00:40:38.231Z,85.63
2023-03-22T00:42:38.658Z,85.52
2023-03-22T00:44:39.022Z,85.83
2023-03-22T00:46:39.265Z,85.83
2023-03-22T00:48:39.584Z,86.04
2023-03-22T00:50:40.407Z,85.93
2023-03-22T00:52:40.909Z,85.52
2023-03-22T00:54:41.225Z,85.83
2023-03-22T00:56:41.526Z,85.93
2023-03-22T00:58:41.809Z,85.97
2023-03-22T01:00:42.516Z,85.72
2023-03-22T01:02:43.702Z,85.66
2023-03-22T01:04:44.070Z,85.25
2023-03-22T01:06:44.367Z,85.46
2023-03-22T01:08:44.669Z,85.11
2023-03-22T01:10:44.981Z,85.01
2023-03-22T01:12:45.271Z,85.72
2023-03-22T01:14:45.581Z,85.63
2023-03-22T01:16:45.953Z,85.63
2023-03-22T01:18:46.276Z,85.72
2023-03-22T01:20:46.717Z,85.72
2023-03-22T01:22:47.061Z,85.63
2023-03-22T01:24:47.400Z,85.72
2023-03-22T01:26:47.683Z,85.93
2023-03-22T01:28:47.966Z,85.52
2023-03-22T01:30:49.184Z,85.83
2023-03-22T01:32:49.528Z,85.63
2023-03-22T01:34:49.792Z,85.63
2023-03-22T01:36:50.127Z,85.97
2023-03-22T01:38:50.424Z,85.97
2023-03-22T01:40:50.738Z,86.18
2023-03-22T01:42:51.044Z,86.07
2023-03-22T01:44:51.333Z,85.97
2023-03-22T01:46:51.647Z,85.97
2023-03-22T01:48:51.992Z,85.77
2023-03-22T01:50:52.270Z,85.77
2023-03-22T01:52:52.589Z,86.18
2023-03-22T01:54:52.868Z,86.48
2023-03-22T01:56:58.074Z,86.48
2023-03-22T01:58:58.335Z,86.58
2023-03-22T02:00:58.681Z,86.90
2023-03-22T02:02:59.217Z,86.58
2023-03-22T02:04:59.498Z,86.58
2023-03-22T02:06:59.785Z,86.90
2023-03-22T02:09:00.204Z,87.10
2023-03-22T02:11:00.510Z,87.20
2023-03-22T02:13:00.833Z,87.10
2023-03-22T02:15:01.198Z,87.10
2023-03-22T02:17:01.526Z,87.14
2023-03-22T02:19:01.789Z,87.10
2023-03-22T02:21:02.608Z,86.93
2023-03-22T02:23:02.903Z,87.24
2023-03-22T02:25:03.167Z,86.99
2023-03-22T02:27:03.493Z,86.99
2023-03-22T02:29:08.672Z,86.99
2023-03-22T02:31:09.020Z,87.30
2023-03-22T02:33:09.336Z,87.61
2023-03-22T02:35:09.695Z,88.02
2023-03-22T02:37:10.022Z,88.02
2023-03-22T02:39:10.301Z,87.82
2023-03-22T02:41:10.601Z,87.55
2023-03-22T02:43:10.876Z,87.61
2023-03-22T02:45:11.222Z,87.61
2023-03-22T02:47:11.533Z,87.71
2023-03-22T02:49:11.889Z,87.61
2023-03-22T02:51:12.231Z,87.71
2023-03-22T02:53:12.616Z,87.82
2023-03-22T02:55:12.923Z,88.12
2023-03-22T02:57:13.194Z,87.92
2023-03-22T02:59:14.232Z,87.82
2023-03-22T03:01:14.554Z,88.17
2023-03-22T03:03:14.908Z,87.82
2023-03-22T03:05:15.193Z,87.92
2023-03-22T03:07:15.480Z,87.92
2023-03-22T03:09:15.787Z,87.51
2023-03-22T03:11:16.101Z,87.85
2023-03-22T03:13:16.461Z,87.71
2023-03-22T03:15:16.716Z,87.30
2023-03-22T03:17:17.019Z,87.45
2023-03-22T03:19:17.500Z,87.24
2023-03-22T03:21:17.800Z,86.90
2023-03-22T03:23:18.090Z,86.69
2023-03-22T03:25:18.430Z,86.99
2023-03-22T03:27:18.715Z,86.99
2023-03-22T03:29:19.006Z,87.10
2023-03-22T03:31:19.375Z,86.90
2023-03-22T03:33:19.652Z,86.90
2023-03-22T03:35:19.985Z,86.90
2023-03-22T03:37:20.285Z,86.99
2023-03-22T03:39:20.579Z,87.10
2023-03-22T03:41:21.760Z,86.99
2023-03-22T03:43:22.133Z,87.14
2023-03-22T03:45:22.391Z,86.99
2023-03-22T03:47:22.757Z,86.69
2023-03-22T03:49:23.073Z,86.38
2023-03-22T03:51:23.402Z,86.73
2023-03-22T03:53:23.712Z,86.48
2023-03-22T03:55:24.028Z,86.52
2023-03-22T03:57:24.321Z,86.52
2023-03-22T03:59:24.614Z,86.63
2023-03-22T04:01:24.949Z,86.83
2023-03-22T04:03:25.227Z,86.52
2023-03-22T04:05:25.781Z,86.52
2023-03-22T04:07:26.072Z,86.32
2023-03-22T04:09:26.415Z,86.42
2023-03-22T04:11:26.699Z,86.63
2023-03-22T04:13:27.004Z,86.63
2023-03-22T04:15:27.288Z,86.87
2023-03-22T04:17:27.580Z,86.98
2023-03-22T04:19:27.905Z,87.28
2023-03-22T04:21:28.194Z,87.38
2023-03-22T04:23:28.458Z,87.63
2023-03-22T04:25:28.793Z,88.14
2023-03-22T04:27:29.083Z,88.14
2023-03-22T04:29:29.420Z,88.59
2023-03-22T04:31:29.775Z,88.70
2023-03-22T04:33:30.038Z,88.90
2023-03-22T04:35:30.358Z,89.11
2023-03-22T04:37:30.614Z,89.31
2023-03-22T04:39:30.954Z,89.36
2023-03-22T04:41:31.236Z,89.15
2023-03-22T04:43:31.530Z,88.90
2023-03-22T04:45:31.834Z,88.84
2023-03-22T04:47:32.123Z,88.74
2023-03-22T04:49:32.404Z,88.74
2023-03-22T04:51:32.735Z,88.64
2023-03-22T04:53:33.011Z,88.53
2023-03-22T04:55:33.308Z,88.64
2023-03-22T04:57:33.615Z,88.74
2023-03-22T04:59:38.820Z,88.95
2023-03-22T05:01:39.166Z,88.95
2023-03-22T05:03:39.437Z,89.04
2023-03-22T05:05:40.273Z,88.98
2023-03-22T05:07:40.577Z,88.98
2023-03-22T05:09:40.906Z,89.09
2023-03-22T05:11:41.194Z,88.89
2023-03-22T05:13:41.513Z,88.68
2023-03-22T05:15:41.966Z,88.37
2023-03-22T05:17:42.308Z,88.23
2023-03-22T05:19:42.575Z,88.06
2023-03-22T05:21:42.885Z,87.92
2023-03-22T05:23:43.169Z,87.40
2023-03-22T05:25:43.492Z,87.10
2023-03-22T05:27:43.775Z,86.85
2023-03-22T05:29:44.162Z,86.54
2023-03-22T05:31:44.483Z,86.44
2023-03-22T05:33:44.747Z,86.44
2023-03-22T05:35:45.045Z,86.65
2023-03-22T05:37:45.312Z,86.54
2023-03-22T05:39:45.632Z,86.13
2023-03-22T05:41:45.955Z,86.03
2023-03-22T05:43:46.228Z,85.82
2023-03-22T05:45:46.526Z,85.82
2023-03-22T05:47:46.855Z,85.82
2023-03-22T05:49:47.138Z,85.82
2023-03-22T05:51:47.417Z,85.82
2023-03-22T05:53:47.737Z,85.93
2023-03-22T05:55:48.050Z,86.03
2023-03-22T05:57:48.356Z,86.03
2023-03-22T05:59:49.309Z,86.03
2023-03-22T06:01:49.740Z,85.82
2023-03-22T06:03:50.012Z,85.72
2023-03-22T06:05:50.442Z,85.82
2023-03-22T06:07:50.743Z,85.62
2023-03-22T06:09:51.069Z,85.72
2023-03-22T06:11:51.394Z,85.62
2023-03-22T06:13:51.639Z,85.62
2023-03-22T06:15:51.978Z,85.93
2023-03-22T06:17:52.288Z,85.72
2023-03-22T06:19:53.251Z,85.82
2023-03-22T06:21:53.653Z,85.82
2023-03-22T06:23:54.477Z,85.58
2023-03-22T06:25:54.789Z,85.78
2023-03-22T06:27:55.042Z,85.47
2023-03-22T06:29:55.353Z,85.17
2023-03-22T06:31:55.714Z,85.17
2023-03-22T06:33:56.104Z,84.86
2023-03-22T06:35:56.458Z,84.92
2023-03-22T06:37:56.747Z,84.72
2023-03-22T06:39:57.038Z,84.82
2023-03-22T06:41:57.314Z,84.72
2023-03-22T06:43:58.276Z,84.52
2023-03-22T06:45:58.736Z,84.61
2023-03-22T06:47:59.047Z,84.31
2023-03-22T06:49:59.341Z,84.27
2023-03-22T06:51:59.678Z,84.06
2023-03-22T06:53:59.975Z,83.92
2023-03-22T06:56:00.234Z,83.51
2023-03-22T06:58:00.629Z,83.61
2023-03-22T07:00:00.888Z,83.92
2023-03-22T07:02:01.220Z,83.82
2023-03-22T07:04:01.709Z,83.27
2023-03-22T07:06:01.988Z,83.47
2023-03-22T07:08:02.290Z,82.96
2023-03-22T07:10:02.634Z,83.58
2023-03-22T07:12:02.920Z,83.37
2023-03-22T07:14:03.442Z,82.62
2023-03-22T07:16:03.847Z,82.51
2023-03-22T07:18:04.132Z,82.00
2023-03-22T07:20:04.419Z,81.79
2023-03-22T07:22:04.712Z,81.59
2023-03-22T07:24:05.018Z,81.15
2023-03-22T07:26:05.320Z,80.94
2023-03-22T07:28:05.585Z,80.94
2023-03-22T07:30:07.661Z,80.69
2023-03-22T07:32:09.324Z,80.08
2023-03-22T07:34:09.595Z,80.19
2023-03-22T07:36:09.922Z,79.98
2023-03-22T07:38:10.229Z,79.78
2023-03-22T07:40:10.531Z,79.88
2023-03-22T07:42:10.889Z,79.64
2023-03-22T07:44:17.579Z,79.43
2023-03-22T07:46:16.446Z,79.23
2023-03-22T07:48:16.868Z,79.74
2023-03-22T07:50:17.218Z,79.53
2023-03-22T07:52:17.563Z,79.29
2023-03-22T07:54:32.438Z,79.29
2023-03-22T07:56:23.081Z,78.50
2023-03-22T07:58:23.398Z,78.06
2023-03-22T08:00:23.714Z,77.41
2023-03-22T08:02:23.986Z,76.76
2023-03-22T08:04:24.294Z,75.54
2023-03-22T08:06:24.582Z,75.44
2023-03-22T08:08:24.851Z,75.13
2023-03-22T08:10:25.175Z,75.13
2023-03-22T08:12:25.454Z,75.51
2023-03-22T08:14:35.921Z,74.58
2023-03-22T08:16:31.008Z,74.90
2023-03-22T08:18:31.259Z,74.96
2023-03-22T08:20:31.577Z,73.84
2023-03-22T08:22:31.911Z,73.50
2023-03-22T08:24:32.153Z,72.96
2023-03-22T08:26:32.503Z,72.04
2023-03-22T08:28:32.766Z,72.01
2023-03-22T08:30:33.110Z,71.80
2023-03-22T08:32:33.356Z,71.19
2023-03-22T08:34:33.691Z,71.06
2023-03-22T08:36:34.016Z,70.25
2023-03-22T08:38:34.324Z,70.45
2023-03-22T08:40:40.327Z,69.81
2023-03-22T08:42:40.575Z,70.21
2023-03-22T08:44:40.856Z,69.20
2023-03-22T08:46:41.168Z,69.37
2023-03-22T08:48:41.454Z,69.03
2023-03-22T08:50:41.770Z,68.19
2023-03-22T08:52:42.056Z,68.08
2023-03-22T08:54:42.350Z,67.75
2023-03-22T08:56:42.680Z,66.74
2023-03-22T08:58:42.973Z,66.53
2023-03-22T09:00:49.102Z,66.86
2023-03-22T09:02:48.481Z,67.17
2023-03-22T09:04:49.791Z,66.86
2023-03-22T09:06:50.052Z,67.81
2023-03-22T09:08:50.422Z,67.20
2023-03-22T09:10:50.686Z,67.50
2023-03-22T09:12:51.005Z,66.66
2023-03-22T09:14:51.317Z,66.36
2023-03-22T09:16:51.624Z,66.43
2023-03-22T09:18:51.986Z,66.02
2023-03-22T09:20:52.245Z,64.81
2023-03-22T09:22:52.569Z,65.99
2023-03-22T09:24:52.883Z,64.14
2023-03-22T09:26:53.145Z,63.73
2023-03-22T09:28:53.492Z,63.23
2023-03-22T09:30:53.793Z,63.40
2023-03-22T09:32:54.041Z,62.29
2023-03-22T09:34:54.400Z,63.27
2023-03-22T09:36:57.330Z,62.86
2023-03-22T09:38:57.756Z,62.46
2023-03-22T09:40:58.077Z,61.44
2023-03-22T09:42:58.390Z,60.63
2023-03-22T09:44:58.700Z,61.21
2023-03-22T09:46:58.965Z,60.38
2023-03-22T09:48:59.269Z,60.27
2023-03-22T09:50:59.614Z,59.97
2023-03-22T09:52:59.914Z,60.05
2023-03-22T09:55:00.208Z,59.34
2023-03-22T09:57:00.499Z,60.07
2023-03-22T09:59:00.794Z,59.87
2023-03-22T10:01:01.432Z,60.30
2023-03-22T10:03:01.829Z,61.69
2023-03-22T10:05:02.130Z,60.78
2023-03-22T10:07:05.421Z,60.10
2023-03-22T10:09:05.713Z,61.11
2023-03-22T10:11:06.047Z,61.44
2023-03-22T10:13:06.357Z,61.55
2023-03-22T10:15:06.659Z,61.44
2023-03-22T10:17:06.959Z,61.95
2023-03-22T10:19:07.235Z,61.47
2023-03-22T10:21:07.556Z,62.08
2023-03-22T10:23:07.884Z,62.18
2023-03-22T10:25:08.355Z,62.38
2023-03-22T10:27:08.638Z,61.78
2023-03-22T10:29:08.967Z,62.08
2023-03-22T10:31:09.311Z,62.69
2023-03-22T10:33:09.591Z,62.72
2023-03-22T10:35:10.395Z,62.92
2023-03-22T10:37:11.440Z,63.50
2023-03-22T10:39:13.834Z,62.89
2023-03-22T10:41:14.733Z,62.66
2023-03-22T10:43:15.060Z,61.92
2023-03-22T10:45:15.361Z,61.29
2023-03-22T10:47:15.760Z,60.38
2023-03-22T10:49:16.018Z,60.35
2023-03-22T10:51:16.441Z,60.05
2023-03-22T10:53:16.718Z,59.11
2023-03-22T10:55:17.029Z,58.80
2023-03-22T10:57:17.389Z,59.51
2023-03-22T10:59:17.744Z,59.31
2023-03-22T11:01:18.126Z,59.51
2023-03-22T11:03:18.454Z,58.78
2023-03-22T11:05:18.755Z,58.37
2023-03-22T11:07:19.056Z,58.85
2023-03-22T11:09:19.351Z,58.82
2023-03-22T11:11:19.667Z,57.58
2023-03-22T11:13:19.975Z,57.43
2023-03-22T11:15:20.255Z,57.94
2023-03-22T11:17:20.819Z,57.28
2023-03-22T11:19:21.100Z,56.65
2023-03-22T11:21:21.415Z,56.24
2023-03-22T11:23:21.859Z,56.62
2023-03-22T11:25:22.184Z,55.03
2023-03-22T11:27:22.635Z,54.10
2023-03-22T11:29:22.899Z,53.09
2023-03-22T11:31:23.345Z,54.30
2023-03-22T11:33:23.654Z,53.37
2023-03-22T11:35:24.016Z,53.07
2023-03-22T11:37:24.817Z,53.25
2023-03-22T11:39:25.130Z,52.57
2023-03-22T11:41:25.405Z,52.77
2023-03-22T11:43:25.794Z,51.54
2023-03-22T11:45:26.080Z,51.24
2023-03-22T11:47:26.467Z,51.24
2023-03-22T11:49:26.967Z,51.81
2023-03-22T11:51:27.282Z,51.49
2023-03-22T11:53:27.587Z,50.59
2023-03-22T11:55:27.899Z,50.31
2023-03-22T11:57:28.198Z,50.99
2023-03-22T11:59:28.562Z,50.31
2023-03-22T12:01:28.916Z,50.18
2023-03-22T12:03:29.409Z,49.86
2023-03-22T12:05:29.826Z,49.84
2023-03-22T12:07:30.245Z,49.66
2023-03-22T12:09:30.561Z,49.56
2023-03-22T12:11:30.970Z,49.26
2023-03-22T12:13:31.369Z,49.58
2023-03-22T12:15:31.663Z,49.76
2023-03-22T12:17:32.930Z,49.96
2023-03-22T12:19:33.226Z,49.23
2023-03-22T12:21:33.513Z,48.21
2023-03-22T12:23:33.828Z,48.91
2023-03-22T12:25:34.158Z,49.46
2023-03-22T12:27:34.475Z,49.76
2023-03-22T12:29:34.789Z,48.66
2023-03-22T12:31:35.215Z,48.86
2023-03-22T12:33:40.318Z,49.60
2023-03-22T12:35:41.126Z,50.51
2023-03-22T12:37:41.509Z,50.38
2023-03-22T12:39:41.806Z,48.78
2023-03-22T12:41:42.071Z,48.73
2023-03-22T12:43:42.422Z,49.23
2023-03-22T12:45:42.945Z,48.36
2023-03-22T12:47:43.374Z,46.74
2023-03-22T12:49:43.755Z,46.44
2023-03-22T12:51:44.038Z,46.50
2023-03-22T12:53:44.341Z,47.23
2023-03-22T12:55:45.033Z,47.13
2023-03-22T12:57:45.398Z,46.91
2023-03-22T12:59:45.690Z,47.08
2023-03-22T13:01:46.043Z,46.48
2023-03-22T13:03:46.537Z,46.16
2023-03-22T13:05:46.853Z,45.56
2023-03-22T13:07:47.179Z,46.20
2023-03-22T13:09:47.500Z,46.68
2023-03-22T13:11:47.919Z,47.19
2023-03-22T13:13:48.239Z,46.20
2023-03-22T13:15:48.575Z,45.62
2023-03-22T13:17:48.962Z,46.04
2023-03-22T13:19:49.276Z,46.15
2023-03-22T13:21:49.676Z,46.55
2023-03-22T13:23:49.974Z,47.47
2023-03-22T13:25:50.309Z,48.28
2023-03-22T13:27:50.586Z,47.70
2023-03-22T13:29:50.874Z,48.40
2023-03-22T13:31:51.291Z,47.77
2023-03-22T13:33:51.924Z,47.67
2023-03-22T13:35:52.286Z,47.58
2023-03-22T13:37:52.640Z,47.77
2023-03-22T13:39:52.891Z,47.88
2023-03-22T13:41:53.187Z,47.97
2023-03-22T13:43:53.495Z,48.38
2023-03-22T13:45:53.819Z,47.47
2023-03-22T13:47:54.463Z,47.27
2023-03-22T13:49:54.770Z,47.60
2023-03-22T13:51:55.041Z,48.32
2023-03-22T13:53:55.360Z,48.12
2023-03-22T13:55:55.736Z,47.92
2023-03-22T13:57:56.112Z,47.30
2023-03-22T14:00:08.858Z,47.19
2023-03-22T14:02:01.593Z,45.69
2023-03-22T14:04:01.860Z,45.21
2023-03-22T14:06:02.267Z,44.51
2023-03-22T14:08:02.739Z,44.31
2023-03-22T14:10:03.088Z,45.10
2023-03-22T14:12:03.341Z,44.60
2023-03-22T14:14:03.615Z,44.93
2023-03-22T14:16:04.037Z,44.71
2023-03-22T14:18:04.439Z,44.18
2023-03-22T14:20:04.910Z,43.28
2023-03-22T14:46:09.771Z,43.68
2023-03-22T14:48:10.551Z,43.88
2023-03-22T14:50:10.856Z,43.38
2023-03-22T14:52:11.249Z,43.76
2023-03-22T14:54:11.572Z,43.36
2023-03-22T14:56:13.167Z,42.16
2023-03-22T14:58:13.477Z,42.33
2023-03-22T15:00:13.727Z,41.63
2023-03-22T15:02:14.063Z,41.60
2023-03-22T15:04:14.346Z,40.37
2023-03-22T15:06:14.630Z,40.89
2023-03-22T15:08:14.976Z,42.21
2023-03-22T15:10:15.286Z,41.71
2023-03-22T15:12:15.572Z,41.21
2023-03-22T15:14:15.903Z,41.99
2023-03-22T15:16:16.232Z,41.19
2023-03-22T15:18:16.550Z,40.89
2023-03-22T15:20:16.822Z,39.69
2023-03-22T15:22:17.172Z,39.40
2023-03-22T15:24:17.479Z,39.49
2023-03-22T15:26:17.749Z,39.09
2023-03-22T15:28:18.035Z,39.69
2023-03-22T15:30:18.360Z,39.39
2023-03-22T15:32:18.689Z,40.13
2023-03-22T15:34:19.017Z,40.91
2023-03-22T15:36:19.304Z,40.51
2023-03-22T15:38:23.442Z,41.03
2023-03-22T15:40:24.818Z,41.07
2023-03-22T15:42:25.124Z,41.87
2023-03-22T15:44:25.429Z,41.89
2023-03-22T15:46:25.719Z,41.71
2023-03-22T15:48:25.994Z,42.11
2023-03-22T15:50:26.305Z,42.44
2023-03-22T15:52:26.597Z,42.55
2023-03-22T15:54:26.920Z,43.26
2023-03-22T15:56:31.890Z,43.38
2023-03-22T15:58:32.381Z,43.99
2023-03-22T16:00:32.676Z,44.19
2023-03-22T16:02:32.954Z,44.21
2023-03-22T16:04:33.230Z,44.51
2023-03-22T16:06:33.588Z,44.81
2023-03-22T16:08:33.900Z,45.42
2023-03-22T16:10:34.185Z,45.62
2023-03-22T16:12:34.516Z,46.02
2023-03-22T16:14:34.801Z,45.74
2023-03-22T16:16:35.152Z,45.84
2023-03-22T16:18:35.443Z,46.45
2023-03-22T16:20:35.788Z,46.45
2023-03-22T16:22:36.085Z,46.45
2023-03-22T16:24:36.404Z,47.05
2023-03-22T16:26:36.698Z,46.85
2023-03-22T16:28:37.623Z,47.05
2023-03-22T16:30:38.062Z,47.17
2023-03-22T16:32:38.405Z,47.27
2023-03-22T16:34:38.669Z,47.38
2023-03-22T16:36:38.980Z,47.38
2023-03-22T16:38:39.266Z,47.98
2023-03-22T16:40:39.544Z,48.18
2023-03-22T16:42:39.858Z,48.30
2023-03-22T16:44:44.754Z,48.21
2023-03-22T16:46:45.458Z,48.41
2023-03-22T16:48:45.729Z,48.61
2023-03-22T16:50:46.084Z,48.91
2023-03-22T16:52:46.373Z,49.11
2023-03-22T16:54:46.726Z,49.21
2023-03-22T16:56:47.041Z,49.54
2023-03-22T16:58:47.311Z,49.84
2023-03-22T17:00:47.616Z,49.64
2023-03-22T17:02:47.936Z,49.94
2023-03-22T17:04:48.299Z,50.15
2023-03-22T17:06:48.650Z,50.35
2023-03-22T17:08:48.929Z,50.45
2023-03-22T17:10:49.311Z,50.07
2023-03-22T17:12:49.636Z,50.07
2023-03-22T17:14:49.925Z,49.96
2023-03-22T17:16:50.223Z,49.96
2023-03-22T17:18:50.491Z,49.96
2023-03-22T17:20:50.823Z,50.47
2023-03-22T17:22:51.269Z,50.57
2023-03-22T17:24:51.566Z,50.67
2023-03-22T17:26:51.879Z,50.70
2023-03-22T17:28:52.155Z,51.10
2023-03-22T17:30:52.445Z,51.40
2023-03-22T17:34:57.955Z,51.93
2023-03-22T17:36:58.247Z,52.74
2023-03-22T17:39:17.896Z,52.23
2023-03-22T17:41:04.115Z,52.34
2023-03-22T17:43:04.763Z,52.44
2023-03-22T17:45:06.879Z,52.23
2023-03-22T17:47:34.730Z,51.83
2023-03-22T17:49:12.986Z,51.83
2023-03-22T17:51:13.301Z,52.03
2023-03-22T17:53:29.152Z,52.23
2023-03-22T17:55:27.390Z,52.54
2023-03-22T17:59:29.211Z,52.67
2023-03-22T18:01:29.617Z,52.67
2023-03-22T18:03:29.883Z,52.97
2023-03-22T18:05:34.172Z,52.76
2023-03-22T18:07:34.659Z,52.87
2023-03-22T18:09:35.054Z,53.07
2023-03-22T18:11:35.336Z,53.38
2023-03-22T18:13:35.615Z,53.58
2023-03-22T18:15:35.961Z,53.80
2023-03-22T18:17:36.215Z,53.60
2023-03-22T18:19:36.911Z,53.90
2023-03-22T18:21:37.203Z,53.90
2023-03-22T18:23:37.506Z,54.00
2023-03-22T18:25:41.795Z,54.21
2023-03-22T18:27:47.689Z,54.31
2023-03-22T18:29:48.098Z,54.44
2023-03-22T18:31:48.415Z,54.84
2023-03-22T18:33:48.748Z,55.24
2023-03-22T18:35:53.953Z,55.04
2023-03-22T18:37:54.258Z,55.55
2023-03-22T18:40:32.582Z,55.85
2023-03-22T18:42:08.646Z,55.98
2023-03-22T18:44:04.980Z,56.18
2023-03-22T18:46:18.835Z,56.18
2023-03-22T18:48:10.997Z,56.38
2023-03-22T18:50:11.262Z,56.28
2023-03-22T18:52:40.000Z,56.38
2023-03-22T18:54:17.019Z,56.41
2023-03-22T18:56:17.978Z,56.61
2023-03-22T18:58:19.189Z,57.12
2023-03-22T19:00:19.495Z,57.22
2023-03-22T19:02:33.424Z,57.73
2023-03-22T19:04:24.994Z,57.83
2023-03-22T19:06:25.298Z,58.03
2023-03-22T19:08:27.789Z,58.56
2023-03-22T19:10:29.257Z,59.78
2023-03-22T19:12:29.573Z,61.20
2023-03-22T19:15:12.045Z,63.12
2023-03-22T19:16:35.036Z,63.35
2023-03-22T19:18:35.351Z,64.47
2023-03-22T19:20:40.099Z,63.49
2023-03-22T19:22:40.861Z,63.49
2023-03-22T19:24:41.182Z,63.59
2023-03-22T19:26:47.684Z,62.98
2023-03-22T19:28:46.919Z,63.89
2023-03-22T19:30:47.328Z,65.65
2023-03-22T19:33:08.077Z,66.16
2023-03-22T19:34:53.773Z,66.97
2023-03-22T19:36:54.131Z,66.77
2023-03-22T19:38:54.428Z,65.37
2023-03-22T19:41:33.733Z,65.88
2023-03-22T19:42:59.984Z,65.68
2023-03-22T19:45:00.254Z,66.29
2023-03-22T19:47:00.797Z,66.49
2023-03-22T19:49:01.169Z,66.90
2023-03-22T19:51:01.509Z,65.58
2023-03-22T19:55:04.098Z,65.99
2023-03-22T19:57:04.419Z,65.78
2023-03-22T19:59:11.050Z,62.94
2023-03-22T20:01:09.936Z,63.75
2023-03-22T20:03:10.197Z,63.55
2023-03-22T20:05:16.978Z,64.56
2023-03-22T20:07:15.686Z,65.48
2023-03-22T20:09:16.034Z,64.76
2023-03-22T20:11:27.602Z,62.94
2023-03-22T20:13:21.469Z,62.53
2023-03-22T20:15:21.847Z,61.32
2023-03-22T20:17:26.247Z,60.07
2023-03-22T20:19:26.725Z,60.17
2023-03-22T20:21:27.016Z,58.65
2023-03-22T20:23:27.317Z,58.11
2023-03-22T20:25:27.599Z,56.36
2023-03-22T20:27:27.897Z,55.52
2023-03-22T20:29:28.179Z,54.82
2023-03-22T20:31:28.508Z,53.27
2023-03-22T20:33:28.825Z,52.94
2023-03-22T20:35:29.308Z,53.05
2023-03-22T20:37:29.603Z,52.64
2023-03-22T20:39:29.876Z,52.54
2023-03-22T20:41:30.216Z,52.84
2023-03-22T20:43:30.494Z,52.84
2023-03-22T20:45:30.818Z,52.84
2023-03-22T20:47:32.463Z,53.45
2023-03-22T20:49:33.281Z,53.14
2023-03-22T20:51:33.593Z,53.47
2023-03-22T20:53:33.927Z,53.78
2023-03-22T20:55:35.187Z,53.78
2023-03-22T20:57:35.467Z,53.78
2023-03-22T20:59:36.364Z,53.78
2023-03-22T21:01:36.783Z,54.08
2023-03-22T21:03:37.022Z,54.00
2023-03-22T21:05:37.348Z,54.71
2023-03-22T21:07:37.704Z,54.41
2023-03-22T21:09:38.274Z,54.31
2023-03-22T21:11:38.635Z,54.21
2023-03-22T21:13:38.942Z,54.41
2023-03-22T21:15:39.519Z,54.71
2023-03-22T21:17:39.922Z,54.71
2023-03-22T21:19:40.326Z,54.94
2023-03-22T21:21:47.948Z,54.94
2023-03-22T21:23:50.775Z,54.44
2023-03-22T21:25:51.479Z,54.44
2023-03-22T21:27:52.739Z,55.25
2023-03-22T21:29:53.307Z,55.04
2023-03-22T21:31:53.581Z,55.17
2023-03-22T21:33:53.925Z,55.78
2023-03-22T21:35:54.375Z,56.09
2023-03-22T21:37:54.688Z,55.91
2023-03-22T21:39:54.976Z,56.01
2023-03-22T21:41:55.362Z,56.01
2023-03-22T21:43:55.665Z,56.41
2023-03-22T21:45:55.988Z,56.62
2023-03-22T21:47:56.278Z,56.41
2023-03-22T21:49:56.600Z,57.12
2023-03-22T21:51:56.858Z,57.53
2023-03-22T21:53:57.177Z,57.84
2023-03-22T21:55:57.482Z,58.24
2023-03-22T21:57:57.766Z,58.45
2023-03-22T21:59:58.156Z,58.65
2023-03-22T22:02:03.367Z,58.95
2023-03-22T22:04:03.629Z,59.48
2023-03-22T22:06:04.096Z,59.59
2023-03-22T22:08:04.386Z,60.20
2023-03-22T22:10:04.709Z,60.10
2023-03-22T22:12:05.015Z,60.40
2023-03-22T22:14:05.430Z,60.91
2023-03-22T22:16:06.001Z,60.71
2023-03-22T22:18:06.364Z,60.81
2023-03-22T22:20:06.748Z,61.21
2023-03-22T22:22:07.000Z,61.62
2023-03-22T22:24:07.303Z,61.55
2023-03-22T22:26:07.765Z,61.95
2023-03-22T22:28:08.233Z,62.26
2023-03-22T22:30:08.668Z,62.36
2023-03-22T22:32:09.294Z,62.97
2023-03-22T22:34:10.426Z,63.17
2023-03-22T22:36:11.361Z,63.28
2023-03-22T22:38:11.683Z,63.58
2023-03-22T22:40:12.358Z,63.98
2023-03-22T22:42:12.658Z,63.68
2023-03-22T22:44:12.955Z,63.68
2023-03-22T22:46:13.745Z,63.98
2023-03-22T22:48:14.028Z,64.39
2023-03-22T22:50:14.794Z,64.79
2023-03-22T22:52:15.127Z,64.70
2023-03-22T22:54:15.466Z,65.00
2023-03-22T22:56:15.891Z,64.90
2023-03-22T22:58:16.220Z,65.51
2023-03-22T23:00:16.485Z,66.42
2023-03-22T23:02:17.051Z,67.64
2023-03-22T23:04:17.351Z,67.33
2023-03-22T23:06:17.677Z,67.88
2023-03-22T23:08:17.970Z,67.47
2023-03-22T23:10:18.287Z,67.57
2023-03-22T23:12:18.579Z,67.57
2023-03-22T23:14:18.894Z,67.67
2023-03-22T23:16:19.251Z,67.47
2023-03-22T23:18:19.842Z,67.88
2023-03-22T23:20:20.130Z,67.97
2023-03-22T23:22:20.572Z,67.67
2023-03-22T23:24:20.862Z,67.57
2023-03-22T23:26:21.181Z,67.67
2023-03-22T23:28:21.527Z,67.57
2023-03-22T23:30:22.062Z,67.77
2023-03-22T23:32:22.463Z,67.16
2023-03-22T23:34:22.875Z,67.27
2023-03-22T23:36:23.267Z,67.16
2023-03-22T23:38:23.741Z,67.06
2023-03-22T23:40:24.047Z,66.76
2023-03-22T23:42:24.415Z,66.66
2023-03-22T23:44:24.691Z,66.46
2023-03-22T23:46:25.157Z,66.15
2023-03-22T23:48:25.421Z,66.05
2023-03-22T23:50:26.372Z,65.84
2023-03-22T23:52:26.762Z,65.91
2023-03-22T23:54:27.200Z,65.91
2023-03-22T23:56:27.471Z,65.91
2023-03-22T23:58:27.807Z,65.61
